Akhiok, Alaska
Current Conditions -  °F | °C
As of 4:53 AM on Saturday 01 Nov 2014 (Local Time) from PADQ Reporting Station
Overcast Overcast  
Wind Chill: 31°   Ceiling: 1600
Heat Index: 36°   Visibility: 10mi
Dew Point: 36°   Wind: 6mph
Humidity: 100%   Direction: 280°W
Pressure: 29"   Gusts: NA
Location:  57.454°N, 153.546°W
Report Text: PADQ 011253Z 28005KT 10SM BKN016 OVC065 02/02 A2900 RMK AO2 RAB1158E14 SLP821 P0000 T00220022
Loading
Personal Weather Stations






























Interactive Weather Map
Tropical Storm Tracking
New forecast layout! Learn more

10-Day Weather Forecast

Advertisements
Track Severe Weather on mobile